Time;durP1;ratioP1;P1;durP2;ratioP2;P2;SDS_P1;SDS_P2;PMS_P1;PMS_P2;Temp;Humidity;BMP_temperature;BMP_pressure;BME280_temperature;BME280_humidity;BME280_pressure;Samples;Min_cycle;Max_cycle;Signal;HPM_P1;HPM_P2
2022/10/03 00:00:22;;;;;;;3.47;0.60;;;12.60;74.50;;;;;;5057888;28;20062;-69
2022/10/03 00:03:09;;;;;;;3.38;1.17;;;12.60;74.50;;;;;;4903198;28;20199;-68
2022/10/03 00:05:52;;;;;;;0.50;0.50;;;12.50;74.70;;;;;;4954683;28;20030;-73
2022/10/03 00:08:35;;;;;;;1.55;0.70;;;12.60;74.60;;;;;;5036757;28;20551;-73
2022/10/03 00:11:25;;;;;;;1.55;0.82;;;12.60;74.60;;;;;;5041505;28;20052;-73
2022/10/03 00:14:09;;;;;;;0.98;0.70;;;12.60;74.50;;;;;;5054569;28;20028;-73
2022/10/03 00:16:59;;;;;;;7.72;1.23;;;12.60;74.60;;;;;;5062922;28;20361;-73
2022/10/03 00:19:41;;;;;;;2.15;0.85;;;12.50;74.70;;;;;;5055504;28;20405;-73
2022/10/03 00:22:25;;;;;;;0.82;0.82;;;12.50;74.70;;;;;;5058851;28;20364;-73
2022/10/03 00:25:00;;;;;;;1.00;0.65;;;12.50;74.60;;;;;;5073320;28;20029;-73
2022/10/03 00:27:42;;;;;;;2.05;0.70;;;12.40;74.60;;;;;;5068416;28;20033;-74
2022/10/03 00:30:16;;;;;;;4.03;0.90;;;12.40;74.60;;;;;;5059803;28;20021;-73
2022/10/03 00:32:56;;;;;;;0.50;0.50;;;12.40;74.70;;;;;;5066215;28;20033;-73
2022/10/03 00:35:59;;;;;;;1.15;0.98;;;12.40;74.70;;;;;;5072537;28;20021;-73
2022/10/03 00:38:43;;;;;;;1.02;0.73;;;12.40;74.70;;;;;;5061045;28;20027;-73
2022/10/03 00:41:22;;;;;;;0.93;0.80;;;12.30;74.90;;;;;;5051549;28;20425;-73
2022/10/03 00:44:13;;;;;;;1.50;0.60;;;12.30;74.90;;;;;;5072448;28;20041;-73
2022/10/03 00:47:03;;;;;;;1.20;0.65;;;12.30;74.90;;;;;;5040487;28;20024;-73
2022/10/03 00:50:15;;;;;;;3.03;1.00;;;12.20;74.90;;;;;;5067392;28;20059;-72
2022/10/03 00:53:27;;;;;;;3.03;0.60;;;12.20;74.90;;;;;;5046954;28;20052;-73
2022/10/03 00:55:59;;;;;;;5.00;0.82;;;12.20;75.00;;;;;;5031935;28;20072;-73
2022/10/03 00:58:34;;;;;;;;;;;12.10;75.10;;;;;;5067230;28;20113;-73
2022/10/03 01:01:43;;;;;;;1.52;1.17;;;12.10;75.20;;;;;;5037569;28;19917;-73
2022/10/03 01:04:11;;;;;;;1.13;0.63;;;12.10;75.10;;;;;;5061263;28;20364;-67
2022/10/03 01:06:55;;;;;;;1.70;0.60;;;12.10;75.30;;;;;;5072071;28;20518;-73
2022/10/03 01:09:49;;;;;;;3.08;1.30;;;12.10;75.20;;;;;;5071500;28;20021;-67
2022/10/03 01:12:46;;;;;;;1.15;0.60;;;12.00;75.20;;;;;;5037030;28;20488;-73
2022/10/03 01:15:26;;;;;;;3.67;0.82;;;12.00;75.30;;;;;;5070949;28;20025;-74
2022/10/03 01:17:54;;;;;;;4.60;1.25;;;12.00;75.30;;;;;;5062611;28;20029;-73
2022/10/03 01:20:32;;;;;;;14.05;1.08;;;11.90;75.30;;;;;;5070515;28;20131;-67
2022/10/03 01:23:33;;;;;;;3.00;0.77;;;11.90;75.20;;;;;;5068710;28;20029;-73
2022/10/03 01:26:36;;;;;;;1.20;0.88;;;11.90;75.20;;;;;;5019265;28;20060;-73
2022/10/03 01:32:00;;;;;;;1.10;0.80;;;11.80;75.50;;;;;;5063592;28;19919;-67
2022/10/03 01:34:34;;;;;;;2.15;0.80;;;11.70;75.70;;;;;;5069569;28;20025;-73
2022/10/03 01:37:51;;;;;;;1.73;0.77;;;11.80;75.50;;;;;;5057596;28;20030;-67
2022/10/03 01:40:38;;;;;;;1.08;0.75;;;11.80;75.30;;;;;;5044584;28;20043;-73
2022/10/03 01:43:16;;;;;;;12.95;1.77;;;11.80;76.00;;;;;;5038910;28;20116;-73
2022/10/03 01:45:59;;;;;;;4.68;0.77;;;11.80;75.40;;;;;;5071174;28;20032;-73
2022/10/03 01:48:53;;;;;;;2.15;1.00;;;11.80;75.40;;;;;;5071885;28;20041;-74
2022/10/03 01:51:31;;;;;;;2.85;1.05;;;11.80;75.30;;;;;;5070005;28;20059;-73
2022/10/03 01:54:28;;;;;;;6.18;0.75;;;11.70;75.40;;;;;;5060278;28;20384;-73
2022/10/03 01:57:14;;;;;;;1.10;0.70;;;11.70;75.30;;;;;;5071356;28;20020;-73
2022/10/03 01:59:54;;;;;;;1.50;1.02;;;11.70;75.40;;;;;;5070040;28;20035;-73
2022/10/03 02:02:35;;;;;;;1.08;0.70;;;11.60;75.40;;;;;;5059884;28;20554;-73
2022/10/03 02:05:39;;;;;;;3.85;0.60;;;11.60;75.40;;;;;;5053511;28;20024;-74
2022/10/03 02:08:17;;;;;;;1.70;0.63;;;11.60;75.30;;;;;;5062265;28;20612;-73
2022/10/03 02:11:03;;;;;;;1.05;0.68;;;11.60;76.10;;;;;;5064072;28;20021;-73
2022/10/03 02:13:35;;;;;;;0.52;0.52;;;11.60;75.40;;;;;;5067190;28;20044;-74
2022/10/03 02:16:13;;;;;;;1.08;0.57;;;11.60;75.60;;;;;;5070290;28;20507;-74
2022/10/03 02:18:46;;;;;;;1.10;1.00;;;11.50;75.50;;;;;;5070638;28;20578;-74
2022/10/03 02:21:28;;;;;;;1.23;0.75;;;11.50;75.40;;;;;;5043323;28;20025;-73
2022/10/03 02:24:19;;;;;;;0.70;0.52;;;11.60;75.50;;;;;;5065127;28;20033;-73
2022/10/03 02:27:12;;;;;;;3.10;1.02;;;11.50;75.40;;;;;;5056256;28;20036;-73
2022/10/03 02:29:49;;;;;;;3.03;1.20;;;11.50;75.50;;;;;;5056141;28;20574;-73
2022/10/03 02:32:35;;;;;;;1.55;0.95;;;11.50;75.70;;;;;;5049005;28;20060;-74
2022/10/03 02:35:09;;;;;;;0.90;0.60;;;11.50;75.70;;;;;;5059619;28;20124;-74
2022/10/03 02:37:47;;;;;;;2.17;0.70;;;11.40;75.80;;;;;;5068294;28;20024;-74
2022/10/03 02:40:25;;;;;;;1.95;1.05;;;11.40;75.80;;;;;;5045206;28;20020;-73
2022/10/03 02:43:24;;;;;;;5.97;0.95;;;11.40;75.70;;;;;;5056188;28;20036;-74
2022/10/03 02:46:08;;;;;;;1.52;0.88;;;11.40;75.70;;;;;;5051391;28;20025;-74
2022/10/03 02:49:12;;;;;;;0.63;0.60;;;11.40;75.90;;;;;;5051149;28;20045;-74
2022/10/03 02:51:52;;;;;;;6.88;1.33;;;11.40;75.70;;;;;;5049633;28;20060;-75
2022/10/03 02:54:49;;;;;;;0.93;0.63;;;11.30;75.90;;;;;;5057630;28;20035;-74
2022/10/03 02:57:59;;;;;;;0.90;0.68;;;11.30;75.90;;;;;;5058706;28;20024;-75
2022/10/03 03:00:40;;;;;;;2.92;1.33;;;11.30;75.80;;;;;;5054998;28;20021;-75
2022/10/03 03:03:39;;;;;;;3.08;0.88;;;11.30;76.00;;;;;;5065976;28;20089;-75
2022/10/03 03:06:31;;;;;;;5.00;1.10;;;11.30;76.10;;;;;;5069135;28;20093;-74
2022/10/03 03:09:31;;;;;;;0.60;0.60;;;11.30;76.20;;;;;;5063397;28;20025;-74
2022/10/03 03:12:36;;;;;;;0.95;0.88;;;11.30;76.20;;;;;;5041439;28;20043;-75
2022/10/03 03:15:10;;;;;;;1.55;0.63;;;11.30;76.20;;;;;;5049082;28;20037;-75
2022/10/03 03:17:58;;;;;;;0.70;0.70;;;11.30;76.30;;;;;;5068769;28;20402;-74
2022/10/03 03:20:57;;;;;;;3.60;1.10;;;11.30;76.20;;;;;;5064737;28;20107;-74
2022/10/03 03:23:28;;;;;;;4.53;0.70;;;11.30;76.20;;;;;;5050519;28;20017;-74
2022/10/03 03:26:14;;;;;;;1.40;0.90;;;11.30;76.40;;;;;;5067242;28;20020;-74
2022/10/03 03:29:30;;;;;;;0.47;0.47;;;11.30;76.40;;;;;;5050902;28;20036;-75
2022/10/03 03:32:07;;;;;;;2.10;0.57;;;11.30;76.40;;;;;;5046920;28;20036;-74
2022/10/03 03:35:23;;;;;;;8.35;1.08;;;11.20;76.50;;;;;;5061572;28;20604;-74
2022/10/03 03:38:11;;;;;;;3.58;0.60;;;11.20;76.30;;;;;;4994932;28;20463;-74
2022/10/03 03:40:37;;;;;;;0.60;0.60;;;11.20;76.30;;;;;;5052997;28;20411;-74
2022/10/03 03:43:44;;;;;;;0.45;0.25;;;11.10;76.30;;;;;;5051063;28;20057;-74
2022/10/03 03:46:33;;;;;;;0.90;0.52;;;11.20;76.10;;;;;;5068210;28;20441;-75
2022/10/03 03:49:26;;;;;;;2.35;1.15;;;11.10;76.30;;;;;;5012108;28;20195;-75
2022/10/03 03:52:07;;;;;;;0.63;0.47;;;11.10;76.30;;;;;;5058165;28;20043;-75
2022/10/03 03:55:10;;;;;;;0.40;0.40;;;11.10;76.30;;;;;;5069132;28;20480;-74
2022/10/03 03:57:35;;;;;;;1.83;0.68;;;11.10;76.30;;;;;;5066632;28;20025;-75
2022/10/03 04:00:16;;;;;;;0.60;0.50;;;11.00;76.40;;;;;;5064114;28;20023;-74
2022/10/03 04:03:11;;;;;;;1.25;0.60;;;11.00;76.40;;;;;;5068939;28;20408;-74
2022/10/03 04:05:39;;;;;;;2.47;0.95;;;11.00;76.50;;;;;;5055942;28;20039;-74
2022/10/03 04:08:33;;;;;;;3.97;0.90;;;11.00;76.60;;;;;;5068996;28;20032;-75
2022/10/03 04:11:55;;;;;;;4.53;1.02;;;11.00;76.60;;;;;;5061692;28;20029;-75
2022/10/03 04:14:41;;;;;;;1.15;0.57;;;11.00;76.60;;;;;;4961388;28;20654;-75
2022/10/03 04:20:21;;;;;;;0.63;0.40;;;10.90;76.70;;;;;;5063603;28;20043;-75
2022/10/03 04:22:50;;;;;;;1.37;1.10;;;10.80;76.80;;;;;;5064691;28;20020;-75
2022/10/03 04:25:27;;;;;;;0.40;0.40;;;10.90;76.80;;;;;;5046487;28;20017;-75
2022/10/03 04:27:56;;;;;;;1.10;0.60;;;10.90;76.60;;;;;;5047404;28;20095;-75
2022/10/03 04:30:28;;;;;;;2.35;1.00;;;10.90;76.60;;;;;;5050726;28;20379;-75
2022/10/03 04:33:12;;;;;;;0.85;0.50;;;10.80;76.60;;;;;;5065831;28;20017;-75
2022/10/03 04:36:10;;;;;;;0.32;0.32;;;10.80;76.50;;;;;;5068346;28;20037;-73
2022/10/03 04:38:53;;;;;;;1.25;0.80;;;10.90;76.50;;;;;;5060183;28;20498;-73
2022/10/03 04:41:57;;;;;;;2.53;0.90;;;10.80;76.60;;;;;;5058527;28;20024;-73
2022/10/03 04:44:44;;;;;;;1.35;0.38;;;10.80;76.70;;;;;;5015023;28;20124;-74
2022/10/03 04:47:30;;;;;;;11.85;0.82;;;10.80;76.70;;;;;;5019749;28;20029;-67
2022/10/03 04:50:02;;;;;;;2.47;1.08;;;10.80;76.80;;;;;;5033736;28;20434;-67
2022/10/03 04:52:38;;;;;;;1.25;0.60;;;10.80;76.80;;;;;;5043376;28;20047;-66
2022/10/03 04:55:25;;;;;;;2.17;1.02;;;10.80;76.80;;;;;;5053290;28;20037;-66
2022/10/03 04:58:14;;;;;;;1.20;0.77;;;10.80;76.90;;;;;;5055562;28;20017;-67
2022/10/03 05:01:02;;;;;;;1.75;0.93;;;10.70;76.90;;;;;;5037490;28;20020;-67
2022/10/03 05:03:42;;;;;;;1.15;0.65;;;10.70;76.90;;;;;;5041714;28;20036;-66
2022/10/03 05:06:28;;;;;;;2.20;0.70;;;10.70;76.90;;;;;;5060495;28;20025;-67
2022/10/03 05:09:25;;;;;;;3.05;0.68;;;10.70;77.00;;;;;;5048776;28;20371;-67
2022/10/03 05:12:10;;;;;;;4.57;1.13;;;10.80;77.00;;;;;;5067623;28;20109;-67
2022/10/03 05:15:11;;;;;;;2.55;1.40;;;10.70;77.00;;;;;;5068619;28;20067;-67
2022/10/03 05:17:51;;;;;;;1.80;0.52;;;10.70;77.20;;;;;;5048028;28;20564;-67
2022/10/03 05:20:47;;;;;;;1.00;0.68;;;10.70;77.30;;;;;;5067491;28;20073;-67
2022/10/03 05:23:45;;;;;;;2.25;0.45;;;10.70;77.20;;;;;;5058363;28;20037;-74
2022/10/03 05:26:41;;;;;;;2.05;0.93;;;10.70;77.20;;;;;;5067294;28;20068;-74
2022/10/03 05:29:17;;;;;;;0.85;0.43;;;10.60;77.20;;;;;;5048013;28;20062;-74
2022/10/03 05:32:05;;;;;;;0.60;0.40;;;10.60;77.30;;;;;;5068489;28;20063;-74
2022/10/03 05:34:37;;;;;;;0.95;0.63;;;10.60;77.20;;;;;;5064215;28;20028;-74
2022/10/03 05:37:31;;;;;;;1.55;0.50;;;10.60;77.20;;;;;;5062593;28;20027;-67
2022/10/03 05:40:12;;;;;;;1.27;0.80;;;10.50;77.20;;;;;;5069335;28;20033;-67
2022/10/03 05:42:56;;;;;;;1.17;0.70;;;10.50;77.30;;;;;;5062618;28;20032;-67
2022/10/03 05:45:41;;;;;;;1.48;0.65;;;10.50;77.20;;;;;;5047615;28;20029;-67
2022/10/03 05:48:18;;;;;;;1.88;0.95;;;10.50;77.20;;;;;;5056903;28;20464;-67
2022/10/03 05:50:46;;;;;;;0.93;0.50;;;10.50;77.20;;;;;;5060567;28;20122;-67
2022/10/03 05:53:14;;;;;;;1.77;0.65;;;10.50;77.80;;;;;;5067180;28;20024;-67
2022/10/03 05:55:43;;;;;;;3.70;0.57;;;10.50;77.20;;;;;;5060451;28;20495;-67
2022/10/03 05:58:45;;;;;;;1.15;1.00;;;10.50;77.10;;;;;;5052644;28;20027;-67
2022/10/03 06:01:11;;;;;;;0.73;0.70;;;10.50;77.00;;;;;;5058473;28;20052;-67
2022/10/03 06:03:55;;;;;;;0.60;0.55;;;10.50;77.20;;;;;;5051140;28;20117;-67
2022/10/03 06:06:46;;;;;;;4.07;1.25;;;10.50;77.10;;;;;;5051181;28;20094;-67
2022/10/03 06:09:57;;;;;;;1.88;0.85;;;10.50;77.30;;;;;;5041882;28;20052;-68
2022/10/03 06:12:31;;;;;;;1.88;0.73;;;10.50;77.20;;;;;;5039662;28;20074;-68
2022/10/03 06:15:37;;;;;;;2.05;0.93;;;10.50;77.30;;;;;;5068584;28;20024;-67
2022/10/03 06:18:11;;;;;;;1.00;0.80;;;10.50;77.30;;;;;;5070470;28;20103;-75
2022/10/03 06:20:59;;;;;;;1.38;0.88;;;10.50;77.50;;;;;;5068478;28;20111;-75
2022/10/03 06:23:51;;;;;;;0.52;0.52;;;10.60;77.40;;;;;;5052955;28;20067;-75
2022/10/03 06:26:35;;;;;;;2.05;0.98;;;10.60;77.30;;;;;;5064055;28;20028;-67
2022/10/03 06:29:16;;;;;;;9.77;1.05;;;10.60;77.50;;;;;;5069301;28;20048;-67
2022/10/03 06:31:46;;;;;;;1.45;1.10;;;10.60;77.50;;;;;;5067748;28;20068;-67
2022/10/03 06:34:33;;;;;;;4.85;0.73;;;10.60;77.80;;;;;;5051492;28;20545;-67
2022/10/03 06:37:13;;;;;;;1.50;0.73;;;10.70;77.90;;;;;;5066229;28;20112;-74
2022/10/03 06:40:21;;;;;;;1.80;0.93;;;10.70;78.00;;;;;;5037625;28;20115;-75
2022/10/03 06:43:15;;;;;;;1.42;1.05;;;10.70;78.00;;;;;;5066120;28;20012;-74
2022/10/03 06:46:22;;;;;;;1.35;0.88;;;10.80;78.00;;;;;;5057531;28;20115;-74
2022/10/03 06:49:00;;;;;;;2.28;0.95;;;10.90;77.90;;;;;;5059105;28;20541;-74
2022/10/03 06:51:41;;;;;;;1.25;0.73;;;10.90;78.10;;;;;;5050364;28;20021;-67
2022/10/03 06:54:31;;;;;;;2.97;0.93;;;10.90;78.00;;;;;;5047437;28;20087;-67
2022/10/03 06:57:01;;;;;;;2.28;1.33;;;11.10;78.00;;;;;;5062703;28;20029;-67
2022/10/03 06:59:51;;;;;;;1.80;1.40;;;11.10;77.90;;;;;;5068781;28;20017;-67
2022/10/03 07:02:23;;;;;;;2.60;1.20;;;11.20;78.00;;;;;;5058892;28;20024;-67
2022/10/03 07:05:18;;;;;;;3.20;1.10;;;11.30;78.00;;;;;;5051211;28;20024;-67
2022/10/03 07:08:14;;;;;;;4.10;1.42;;;11.30;78.00;;;;;;5064583;28;20127;-67
2022/10/03 07:11:09;;;;;;;2.10;1.10;;;11.40;78.10;;;;;;5063700;28;20534;-73
2022/10/03 07:14:13;;;;;;;1.40;1.23;;;11.50;78.10;;;;;;5055145;28;20040;-73
2022/10/03 07:16:53;;;;;;;2.78;1.45;;;11.60;78.30;;;;;;5049308;28;20028;-74
2022/10/03 07:19:46;;;;;;;4.28;1.35;;;11.70;78.50;;;;;;5071279;28;20052;-74
2022/10/03 07:22:38;;;;;;;2.28;1.40;;;11.80;78.80;;;;;;5061333;28;20032;-74
2022/10/03 07:25:36;;;;;;;2.70;1.57;;;12.00;79.00;;;;;;5065147;28;20028;-67
2022/10/03 07:28:29;;;;;;;3.17;1.70;;;12.00;79.10;;;;;;5045128;28;20294;-67
2022/10/03 07:31:19;;;;;;;2.40;1.23;;;12.10;79.10;;;;;;5063044;28;20036;-67
2022/10/03 07:33:51;;;;;;;3.05;1.33;;;12.20;79.20;;;;;;5056213;28;20026;-67
2022/10/03 07:40:04;;;;;;;1.38;1.02;;;12.40;79.40;;;;;;5068778;28;20298;-75
2022/10/03 07:42:38;;;;;;;2.78;0.98;;;12.50;79.50;;;;;;5058027;28;20051;-73
2022/10/03 07:45:44;;;;;;;1.70;1.20;;;12.50;79.70;;;;;;5064403;28;20023;-67
2022/10/03 07:48:18;;;;;;;3.85;1.77;;;12.60;79.70;;;;;;5057060;28;20724;-67
2022/10/03 07:51:16;;;;;;;2.50;1.23;;;12.70;79.70;;;;;;5067141;28;20036;-67
2022/10/03 07:54:06;;;;;;;4.22;1.25;;;12.80;79.50;;;;;;5044756;28;20446;-67
2022/10/03 07:56:53;;;;;;;3.42;1.52;;;12.90;79.50;;;;;;5064417;28;20432;-74
2022/10/03 07:59:31;;;;;;;2.00;1.35;;;13.00;79.50;;;;;;5066666;28;20040;-72
2022/10/03 08:02:15;;;;;;;1.30;1.10;;;13.10;79.80;;;;;;5068685;28;20058;-74
2022/10/03 08:05:13;;;;;;;3.00;1.20;;;13.10;79.60;;;;;;5065610;28;20017;-74
2022/10/03 08:07:41;;;;;;;1.10;0.85;;;13.30;79.30;;;;;;5065553;28;20032;-74
2022/10/03 08:10:25;;;;;;;3.63;1.33;;;13.40;79.20;;;;;;5066066;28;20024;-74
2022/10/03 08:12:57;;;;;;;2.55;1.17;;;13.50;78.90;;;;;;5058029;28;20072;-74
2022/10/03 08:15:31;;;;;;;1.50;1.03;;;13.70;78.80;;;;;;5067766;28;20051;-73
2022/10/03 08:18:23;;;;;;;2.80;1.17;;;13.70;78.60;;;;;;5068048;28;20021;-74
2022/10/03 08:21:00;;;;;;;1.30;0.90;;;13.80;78.60;;;;;;5055658;28;20422;-74
2022/10/03 08:23:32;;;;;;;3.08;1.00;;;13.90;78.50;;;;;;5064303;28;20282;-74
2022/10/03 08:26:16;;;;;;;1.63;0.95;;;14.00;78.60;;;;;;5065123;28;20060;-68
2022/10/03 08:28:57;;;;;;;1.15;1.08;;;14.10;78.70;;;;;;5059898;28;20064;-68
2022/10/03 08:32:00;;;;;;;1.58;1.20;;;14.20;78.70;;;;;;5066312;28;20077;-68
2022/10/03 08:34:46;;;;;;;3.88;1.27;;;14.20;78.70;;;;;;5067097;28;20492;-68
2022/10/03 08:37:20;;;;;;;3.53;1.27;;;14.30;78.70;;;;;;5065203;28;20037;-69
2022/10/03 08:40:19;;;;;;;2.30;1.45;;;14.30;78.70;;;;;;5063719;28;20034;-69
2022/10/03 08:43:05;;;;;;;1.23;0.93;;;14.40;78.60;;;;;;5065256;28;20043;-69
2022/10/03 08:45:50;;;;;;;2.58;1.40;;;14.50;78.80;;;;;;5066778;28;20510;-68
2022/10/03 08:48:28;;;;;;;1.50;0.73;;;14.60;78.60;;;;;;5069092;28;20367;-68
2022/10/03 08:51:12;;;;;;;3.05;1.10;;;14.60;78.40;;;;;;5048877;28;20075;-67
2022/10/03 08:54:12;;;;;;;1.30;1.17;;;14.80;78.50;;;;;;5067494;28;20039;-68
2022/10/03 08:56:56;;;;;;;1.73;1.60;;;14.90;78.20;;;;;;5067505;28;20095;-68
2022/10/03 08:59:59;;;;;;;1.10;1.00;;;15.00;78.30;;;;;;5045273;28;20036;-66
2022/10/03 09:02:24;;;;;;;;;;;15.30;77.80;;;;;;5050544;28;20078;-68
2022/10/03 09:05:05;;;;;;;3.75;2.08;;;15.40;77.50;;;;;;5063755;28;19912;-67
2022/10/03 09:07:48;;;;;;;1.63;1.20;;;15.60;77.30;;;;;;5050033;28;20074;-69
2022/10/03 09:10:52;;;;;;;1.52;0.93;;;15.80;76.80;;;;;;5068630;28;20452;-68
2022/10/03 09:13:21;;;;;;;5.03;1.33;;;16.00;76.70;;;;;;5029507;28;20051;-68
2022/10/03 09:15:58;;;;;;;1.40;0.93;;;16.20;76.20;;;;;;5068471;28;20714;-74
2022/10/03 09:19:01;;;;;;;1.15;0.88;;;16.20;76.10;;;;;;5050655;28;20032;-74
2022/10/03 09:22:04;;;;;;;2.50;1.23;;;16.40;76.10;;;;;;5070160;28;20021;-74
2022/10/03 09:24:53;;;;;;;;;;;16.60;75.90;;;;;;5065849;28;20032;-74
2022/10/03 09:27:41;;;;;;;1.27;0.98;;;16.70;75.60;;;;;;5052772;28;19917;-68
2022/10/03 09:30:18;;;;;;;1.02;0.80;;;16.90;75.40;;;;;;5070339;28;20744;-68
2022/10/03 09:33:12;;;;;;;0.98;0.80;;;17.10;75.10;;;;;;5066801;28;20021;-74
2022/10/03 09:35:53;;;;;;;1.27;0.85;;;17.30;74.10;;;;;;5065437;28;20045;-74
2022/10/03 09:38:47;;;;;;;1.40;0.88;;;17.40;73.70;;;;;;5064291;28;20643;-74
2022/10/03 09:41:27;;;;;;;1.00;0.80;;;17.60;72.90;;;;;;5072285;28;20021;-74
2022/10/03 09:44:28;;;;;;;0.80;0.80;;;17.50;72.70;;;;;;5053668;28;20127;-73
2022/10/03 09:47:27;;;;;;;1.75;1.02;;;17.60;72.50;;;;;;5069879;28;20025;-74
2022/10/03 09:50:35;;;;;;;3.28;1.10;;;17.70;72.00;;;;;;5060553;28;20754;-68
2022/10/03 09:53:38;;;;;;;1.27;0.65;;;17.90;71.50;;;;;;5069244;28;20100;-68
2022/10/03 09:56:19;;;;;;;1.23;0.70;;;18.10;71.50;;;;;;5059606;28;20036;-68
2022/10/03 09:58:54;;;;;;;2.97;1.02;;;18.20;71.00;;;;;;5063913;28;20063;-69
2022/10/03 10:01:33;;;;;;;0.63;0.57;;;18.30;70.50;;;;;;5053400;28;20089;-69
2022/10/03 10:04:13;;;;;;;2.47;0.80;;;18.50;70.40;;;;;;5065702;28;20162;-68
2022/10/03 10:07:27;;;;;;;2.47;0.50;;;18.60;70.10;;;;;;5069508;28;20077;-68
2022/10/03 10:10:23;;;;;;;4.20;0.90;;;18.70;69.40;;;;;;5048699;28;20040;-68
2022/10/03 10:13:04;;;;;;;4.32;0.70;;;18.80;68.70;;;;;;5046414;28;20043;-69
2022/10/03 10:15:36;;;;;;;0.85;0.80;;;18.60;68.10;;;;;;5067339;28;20034;-68
2022/10/03 10:18:20;;;;;;;2.00;1.13;;;18.50;68.40;;;;;;5061095;28;20032;-69
2022/10/03 10:20:49;;;;;;;0.57;0.43;;;18.60;68.00;;;;;;5057273;28;20038;-68
2022/10/03 10:23:29;;;;;;;4.97;1.15;;;18.60;68.40;;;;;;5048275;28;20020;-68
2022/10/03 10:26:13;;;;;;;1.80;1.35;;;18.70;68.60;;;;;;5064161;28;20444;-68
2022/10/03 10:29:07;;;;;;;1.58;0.80;;;18.90;68.50;;;;;;5067399;28;20135;-68
2022/10/03 10:31:42;;;;;;;0.85;0.82;;;19.10;68.10;;;;;;5041017;28;20384;-68
2022/10/03 10:34:30;;;;;;;2.17;0.88;;;19.30;68.00;;;;;;5065165;28;20029;-68
2022/10/03 10:37:24;;;;;;;6.82;0.80;;;19.50;67.10;;;;;;5044668;28;20070;-68
2022/10/03 10:40:15;;;;;;;1.70;0.68;;;19.40;65.90;;;;;;5066149;28;20406;-68
2022/10/03 10:43:16;;;;;;;1.00;0.70;;;19.30;66.30;;;;;;5047504;28;20032;-67
2022/10/03 10:46:18;;;;;;;0.90;0.60;;;19.20;66.60;;;;;;4956964;28;20486;-68
2022/10/03 10:49:22;;;;;;;0.85;0.60;;;19.10;66.70;;;;;;5039941;28;20048;-68
2022/10/03 10:52:32;;;;;;;0.35;0.35;;;19.00;66.90;;;;;;5039875;28;20040;-68
2022/10/03 10:55:21;;;;;;;0.70;0.60;;;18.90;67.10;;;;;;5044041;28;20028;-68
2022/10/03 10:58:15;;;;;;;1.95;0.90;;;18.90;67.50;;;;;;5046340;28;20496;-69
2022/10/03 11:00:50;;;;;;;1.05;0.63;;;18.70;67.40;;;;;;5058149;28;20025;-68
2022/10/03 11:03:48;;;;;;;0.80;0.80;;;18.50;68.20;;;;;;5035602;28;20067;-68
2022/10/03 11:06:56;;;;;;;0.80;0.80;;;18.40;67.70;;;;;;5056757;28;20033;-68
2022/10/03 11:09:29;;;;;;;4.35;1.10;;;18.30;67.90;;;;;;5059486;28;20132;-69
2022/10/03 11:12:14;;;;;;;2.03;1.23;;;18.20;68.10;;;;;;5046766;28;20024;-68
2022/10/03 11:15:01;;;;;;;3.30;0.57;;;18.10;68.00;;;;;;5056093;28;20067;-68
2022/10/03 11:17:38;;;;;;;0.43;0.40;;;18.10;68.50;;;;;;5066475;28;20025;-68
2022/10/03 11:20:39;;;;;;;1.42;0.77;;;18.30;68.80;;;;;;5066105;28;20036;-68
2022/10/03 11:23:17;;;;;;;1.63;0.65;;;18.60;68.10;;;;;;5041721;28;20033;-68
2022/10/03 11:26:03;;;;;;;1.05;0.98;;;18.90;66.90;;;;;;5063890;28;20040;-69
2022/10/03 11:28:47;;;;;;;1.52;0.65;;;18.90;66.70;;;;;;5059272;28;20111;-69
2022/10/03 11:31:32;;;;;;;1.60;0.85;;;18.90;66.10;;;;;;5049962;28;20028;-73
2022/10/03 11:34:35;;;;;;;3.83;1.00;;;18.90;66.40;;;;;;5063108;28;20067;-74
2022/10/03 11:37:22;;;;;;;1.75;0.55;;;19.00;66.00;;;;;;5063904;28;20019;-73
2022/10/03 11:40:12;;;;;;;0.30;0.30;;;19.10;65.40;;;;;;5065020;28;20032;-73
2022/10/03 11:43:12;;;;;;;4.68;0.80;;;19.30;64.90;;;;;;5019914;28;20032;-73
2022/10/03 11:45:55;;;;;;;2.13;0.57;;;19.60;63.90;;;;;;5065179;28;20016;-73
2022/10/03 11:48:38;;;;;;;;;;;20.00;63.10;;;;;;5063536;28;20035;-73
2022/10/03 11:51:18;;;;;;;1.45;0.93;;;20.40;62.50;;;;;;5060495;28;20282;-73
2022/10/03 11:54:02;;;;;;;0.40;0.40;;;20.80;61.40;;;;;;5059839;28;20031;-73
2022/10/03 11:56:50;;;;;;;1.27;1.15;;;21.00;60.80;;;;;;5046654;28;20037;-73
2022/10/03 11:59:50;;;;;;;2.35;0.85;;;20.90;60.00;;;;;;5058369;28;20033;-73
2022/10/03 12:02:53;;;;;;;0.40;0.40;;;20.70;60.70;;;;;;5058598;28;20025;-73
2022/10/03 12:05:21;;;;;;;0.75;0.57;;;20.50;60.90;;;;;;5061176;28;20036;-73
2022/10/03 12:11:22;;;;;;;0.73;0.50;;;19.90;61.80;;;;;;5059252;28;20063;-73
2022/10/03 12:14:09;;;;;;;1.85;0.77;;;19.60;62.60;;;;;;5060806;28;20025;-73
2022/10/03 12:16:52;;;;;;;0.90;0.68;;;19.40;62.60;;;;;;5064518;28;20017;-73
2022/10/03 12:19:52;;;;;;;0.40;0.40;;;19.40;63.10;;;;;;5064035;28;20093;-73
2022/10/03 12:22:23;;;;;;;0.85;0.40;;;19.30;62.90;;;;;;5068088;28;20028;-73
2022/10/03 12:24:53;;;;;;;3.10;0.40;;;19.30;62.40;;;;;;5066065;28;20056;-73
2022/10/03 12:27:48;;;;;;;0.98;0.60;;;19.30;61.80;;;;;;5066454;28;20036;-73
2022/10/03 12:30:17;;;;;;;0.50;0.50;;;19.40;61.40;;;;;;5061369;28;20032;-73
2022/10/03 12:32:58;;;;;;;0.95;0.30;;;19.30;61.40;;;;;;5057361;28;20029;-68
2022/10/03 12:35:49;;;;;;;1.27;0.90;;;19.20;61.40;;;;;;5064377;28;20139;-73
2022/10/03 12:38:33;;;;;;;0.20;0.20;;;19.20;62.00;;;;;;5064400;28;20052;-68
2022/10/03 12:41:07;;;;;;;3.92;1.10;;;19.20;61.80;;;;;;5068162;28;20016;-73
2022/10/03 12:44:03;;;;;;;3.50;0.50;;;19.20;61.70;;;;;;5065455;28;20037;-72
2022/10/03 12:46:50;;;;;;;0.68;0.35;;;19.20;62.10;;;;;;5061005;28;20032;-72
2022/10/03 12:49:34;;;;;;;0.40;0.30;;;19.20;62.20;;;;;;5066266;28;20504;-69
2022/10/03 12:52:08;;;;;;;1.27;0.77;;;19.40;62.00;;;;;;5052438;28;20055;-68
2022/10/03 12:55:03;;;;;;;0.30;0.30;;;19.40;61.90;;;;;;5056634;28;20028;-69
2022/10/03 12:58:09;;;;;;;1.55;0.25;;;19.60;61.10;;;;;;5049777;28;20045;-69
2022/10/03 13:00:58;;;;;;;0.82;0.80;;;19.60;60.60;;;;;;5062227;28;20036;-69
2022/10/03 13:03:32;;;;;;;2.08;1.02;;;19.70;60.90;;;;;;5060026;28;20087;-69
2022/10/03 13:06:12;;;;;;;1.02;0.85;;;19.90;60.70;;;;;;5065316;28;20028;-69
2022/10/03 13:08:47;;;;;;;1.17;0.57;;;20.00;60.00;;;;;;5060260;28;20100;-69
2022/10/03 13:11:31;;;;;;;1.38;0.50;;;20.10;58.90;;;;;;5044164;28;20028;-69
2022/10/03 13:14:08;;;;;;;1.25;0.88;;;20.20;58.90;;;;;;5062940;28;20033;-69
2022/10/03 13:16:59;;;;;;;2.05;1.02;;;20.30;59.10;;;;;;5058855;28;20403;-72
2022/10/03 13:19:38;;;;;;;0.95;0.70;;;20.40;59.10;;;;;;5044404;28;20066;-72
2022/10/03 13:22:22;;;;;;;0.85;0.50;;;20.50;58.90;;;;;;5065364;28;20467;-73
2022/10/03 13:25:02;;;;;;;2.38;0.65;;;20.50;58.50;;;;;;5061017;28;20032;-73
2022/10/03 13:27:45;;;;;;;0.50;0.40;;;20.40;58.60;;;;;;5058195;28;20050;-68
2022/10/03 13:31:02;;;;;;;1.17;0.90;;;20.40;58.70;;;;;;5064418;28;20056;-69
2022/10/03 13:33:35;;;;;;;0.95;0.40;;;20.50;58.20;;;;;;5028421;28;20134;-69
2022/10/03 13:36:25;;;;;;;1.02;0.47;;;20.60;58.20;;;;;;5066195;28;20111;-69
2022/10/03 13:39:18;;;;;;;1.33;0.80;;;20.90;57.90;;;;;;5054622;28;20443;-72
2022/10/03 13:42:10;;;;;;;0.57;0.50;;;21.10;57.00;;;;;;5062636;28;20017;-72
2022/10/03 13:44:47;;;;;;;3.97;0.68;;;21.00;57.10;;;;;;5062450;28;20371;-72
2022/10/03 13:47:27;;;;;;;2.90;1.27;;;20.90;57.60;;;;;;5065473;28;21487;-72
2022/10/03 13:50:08;;;;;;;0.40;0.40;;;20.70;58.00;;;;;;5061081;28;20048;-72
2022/10/03 13:53:01;;;;;;;0.30;0.30;;;20.50;58.60;;;;;;5043565;28;20125;-72
2022/10/03 13:55:51;;;;;;;1.27;0.55;;;20.40;59.00;;;;;;5069040;28;20483;-72
2022/10/03 13:58:26;;;;;;;0.50;0.43;;;20.40;59.00;;;;;;5027255;28;20047;-72
2022/10/03 14:01:12;;;;;;;0.77;0.43;;;20.40;59.00;;;;;;5045710;28;20494;-73
2022/10/03 14:03:49;;;;;;;0.30;0.30;;;20.50;58.90;;;;;;5059186;28;20111;-72
2022/10/03 14:06:39;;;;;;;1.15;0.52;;;20.60;58.60;;;;;;5066816;28;20103;-72
2022/10/03 14:09:31;;;;;;;0.80;0.50;;;20.60;58.40;;;;;;5063241;28;20035;-72
2022/10/03 14:12:05;;;;;;;2.90;0.50;;;20.60;58.50;;;;;;5061947;28;20114;-72
2022/10/03 14:14:44;;;;;;;1.10;0.77;;;20.60;58.50;;;;;;5068020;28;20486;-68
2022/10/03 14:17:23;;;;;;;2.40;0.55;;;20.60;58.40;;;;;;5062969;28;20035;-69
2022/10/03 14:20:05;;;;;;;1.25;0.75;;;20.60;58.30;;;;;;5062904;28;20029;-72
2022/10/03 14:22:59;;;;;;;0.68;0.63;;;20.70;58.10;;;;;;5044245;28;20108;-72
2022/10/03 14:25:45;;;;;;;1.17;0.88;;;20.80;57.80;;;;;;5062057;28;20032;-72
2022/10/03 14:28:43;;;;;;;0.40;0.40;;;21.00;56.60;;;;;;5064167;28;20024;-72
2022/10/03 14:31:20;;;;;;;1.70;0.60;;;21.00;55.80;;;;;;5029814;28;20067;-69
2022/10/03 14:34:03;;;;;;;0.63;0.63;;;21.20;56.40;;;;;;5054837;28;20688;-69
2022/10/03 14:36:34;;;;;;;0.82;0.70;;;21.70;56.10;;;;;;5064097;28;20032;-69
2022/10/03 14:39:34;;;;;;;0.53;0.53;;;22.00;55.10;;;;;;5062493;28;20047;-72